createdAt,value
2023-04-25T00:00:26.257Z,10.86
2023-04-25T00:02:54.673Z,10.93
2023-04-25T00:05:24.351Z,11.11
2023-04-25T00:07:53.269Z,10.69
2023-04-25T00:10:22.151Z,10.93
2023-04-25T00:12:50.501Z,11.22
2023-04-25T00:15:18.767Z,10.70
2023-04-25T00:17:50.762Z,10.41
2023-04-25T00:20:19.143Z,10.70
2023-04-25T00:22:48.879Z,10.91
2023-04-25T00:25:17.086Z,10.97
2023-04-25T00:27:45.509Z,11.06
2023-04-25T00:30:15.480Z,11.06
2023-04-25T00:32:43.945Z,11.19
2023-04-25T00:35:12.345Z,10.90
2023-04-25T00:37:40.708Z,11.14
2023-04-25T00:40:09.579Z,10.74
2023-04-25T00:42:38.469Z,11.10
2023-04-25T00:45:08.555Z,10.87
2023-04-25T00:47:37.564Z,10.81
2023-04-25T00:50:06.801Z,10.82
2023-04-25T00:52:35.182Z,10.57
2023-04-25T00:55:03.785Z,10.69
2023-04-25T00:57:34.296Z,10.56
2023-04-25T01:00:04.031Z,10.64
2023-04-25T01:02:33.166Z,10.68
2023-04-25T01:05:01.882Z,10.49
2023-04-25T01:07:30.455Z,10.80
2023-04-25T01:09:58.869Z,10.58
2023-04-25T01:12:27.266Z,10.59
2023-04-25T01:14:55.822Z,10.97
2023-04-25T01:17:24.788Z,10.81
2023-04-25T01:19:55.605Z,10.75
2023-04-25T01:22:24.005Z,10.74
2023-04-25T01:24:53.574Z,10.91
2023-04-25T01:27:22.764Z,10.70
2023-04-25T01:29:51.966Z,10.79
2023-04-25T01:32:21.088Z,10.35
2023-04-25T01:34:49.533Z,10.66
2023-04-25T01:37:18.731Z,10.65
2023-04-25T01:39:47.196Z,10.63
2023-04-25T01:42:16.020Z,10.66
2023-04-25T01:44:44.314Z,10.55
2023-04-25T01:47:12.816Z,10.65
2023-04-25T01:49:41.137Z,10.82
2023-04-25T01:52:09.371Z,10.53
2023-04-25T01:54:38.331Z,10.68
2023-04-25T01:57:06.585Z,10.60
2023-04-25T01:59:37.558Z,10.71
2023-04-25T02:02:18.203Z,10.39
2023-04-25T02:04:46.692Z,10.51
2023-04-25T02:07:16.731Z,10.57
2023-04-25T02:09:50.576Z,10.45
2023-04-25T02:12:20.402Z,10.56
2023-04-25T02:15:11.928Z,10.73
2023-04-25T02:18:02.844Z,10.47
2023-04-25T02:20:32.386Z,10.68
2023-04-25T02:23:00.824Z,10.64
2023-04-25T02:25:31.285Z,10.64
2023-04-25T02:28:00.060Z,10.68
2023-04-25T02:30:28.412Z,10.82
2023-04-25T02:32:57.499Z,10.48
2023-04-25T02:35:25.924Z,10.72
2023-04-25T02:37:56.405Z,10.57
2023-04-25T02:40:24.779Z,10.55
2023-04-25T02:42:53.166Z,10.47
2023-04-25T02:45:21.827Z,10.58
2023-04-25T02:47:50.238Z,10.65
2023-04-25T02:50:21.081Z,9.91
2023-04-25T02:52:49.487Z,10.34
2023-04-25T02:55:23.972Z,10.36
2023-04-25T02:57:52.999Z,10.41
2023-04-25T03:00:39.260Z,10.42
2023-04-25T03:03:07.621Z,10.31
2023-04-25T03:05:36.267Z,10.25
2023-04-25T03:08:04.982Z,10.54
2023-04-25T03:10:34.939Z,10.17
2023-04-25T03:13:07.325Z,10.41
2023-04-25T03:15:36.992Z,10.52
2023-04-25T03:18:05.531Z,10.45
2023-04-25T03:20:33.813Z,10.35
2023-04-25T03:23:02.059Z,10.13
2023-04-25T03:25:31.636Z,10.27
2023-04-25T03:28:00.401Z,10.30
2023-04-25T03:30:28.813Z,10.18
2023-04-25T03:32:57.122Z,10.32
2023-04-25T03:35:26.156Z,10.49
2023-04-25T03:37:54.793Z,10.38
2023-04-25T03:40:28.216Z,10.15
2023-04-25T03:43:19.578Z,10.16
2023-04-25T03:45:56.336Z,10.32
2023-04-25T03:48:26.985Z,10.41
2023-04-25T03:50:56.467Z,10.18
2023-04-25T03:53:25.131Z,10.28
2023-04-25T03:56:13.267Z,10.21
2023-04-25T03:58:42.495Z,10.21
2023-04-25T04:01:11.224Z,10.14
2023-04-25T04:03:41.308Z,10.13
2023-04-25T04:06:10.141Z,10.33
2023-04-25T04:08:41.759Z,9.97
2023-04-25T04:11:11.716Z,10.11
2023-04-25T04:13:40.093Z,9.95
2023-04-25T04:16:09.438Z,9.86
2023-04-25T04:18:37.923Z,9.92
2023-04-25T04:21:06.321Z,10.19
2023-04-25T04:23:46.936Z,10.09
2023-04-25T04:26:17.266Z,9.91
2023-04-25T04:28:56.179Z,9.92
2023-04-25T04:31:43.064Z,10.05
2023-04-25T04:34:13.685Z,10.05
2023-04-25T04:36:42.504Z,10.04
2023-04-25T04:39:11.602Z,10.25
2023-04-25T04:41:50.212Z,10.19
2023-04-25T04:44:51.078Z,9.97
2023-04-25T04:47:31.767Z,9.98
2023-04-25T04:50:17.121Z,9.90
2023-04-25T04:53:06.155Z,10.15
2023-04-25T04:55:37.210Z,10.08
2023-04-25T04:58:31.883Z,10.03
2023-04-25T05:01:09.544Z,9.98
2023-04-25T05:04:01.179Z,10.10
2023-04-25T05:07:49.876Z,9.99
2023-04-25T05:10:29.203Z,10.13
2023-04-25T05:13:23.951Z,10.18
2023-04-25T05:16:09.494Z,10.20
2023-04-25T05:18:50.426Z,9.92
2023-04-25T05:21:32.327Z,9.93
2023-04-25T05:24:10.786Z,9.96
2023-04-25T05:26:58.906Z,9.91
2023-04-25T05:29:45.088Z,9.99
2023-04-25T05:32:27.742Z,9.98
2023-04-25T05:34:56.864Z,10.29
2023-04-25T05:37:28.900Z,10.40
2023-04-25T05:40:01.182Z,10.35
2023-04-25T05:42:52.820Z,10.23
2023-04-25T05:45:39.539Z,10.29
2023-04-25T05:48:26.444Z,10.74
2023-04-25T05:51:11.892Z,10.35
2023-04-25T05:53:49.308Z,10.55
2023-04-25T05:56:17.750Z,10.36
2023-04-25T05:58:48.153Z,10.09
2023-04-25T06:01:17.083Z,10.52
2023-04-25T06:03:46.592Z,10.45
2023-04-25T06:06:15.231Z,10.46
2023-04-25T06:08:43.847Z,10.65
2023-04-25T06:11:13.642Z,10.60
2023-04-25T06:13:42.013Z,10.46
2023-04-25T06:16:10.599Z,10.92
2023-04-25T06:18:39.094Z,10.89
2023-04-25T06:21:07.693Z,10.99
2023-04-25T06:23:36.169Z,11.00
2023-04-25T06:26:06.832Z,10.81
2023-04-25T06:28:37.732Z,11.02
2023-04-25T06:31:07.422Z,11.00
2023-04-25T06:33:36.664Z,11.23
2023-04-25T06:36:06.080Z,11.33
2023-04-25T06:38:35.760Z,11.56
2023-04-25T06:41:04.069Z,11.57
2023-04-25T06:43:36.511Z,11.28
2023-04-25T06:46:30.950Z,10.94
2023-04-25T06:49:00.990Z,11.53
2023-04-25T06:51:30.942Z,11.60
2023-04-25T06:53:59.909Z,11.60
2023-04-25T06:56:33.757Z,11.75
2023-04-25T06:59:10.148Z,11.75
2023-04-25T07:01:41.148Z,11.84
2023-04-25T07:04:26.931Z,12.06
2023-04-25T07:06:58.548Z,11.46
2023-04-25T07:09:35.517Z,11.45
2023-04-25T07:12:04.380Z,11.19
2023-04-25T07:14:32.669Z,10.82
2023-04-25T07:17:02.742Z,11.45
2023-04-25T07:19:34.737Z,11.77
2023-04-25T07:22:04.402Z,12.03
2023-04-25T07:24:34.237Z,11.85
2023-04-25T07:27:03.696Z,12.30
2023-04-25T07:29:55.260Z,12.73
2023-04-25T07:32:25.330Z,12.74
2023-04-25T07:34:53.720Z,12.80
2023-04-25T07:37:22.027Z,12.80
2023-04-25T07:40:05.135Z,12.67
2023-04-25T07:42:34.080Z,12.64
2023-04-25T07:45:04.163Z,12.54
2023-04-25T07:47:32.551Z,12.79
2023-04-25T07:50:01.494Z,12.63
2023-04-25T07:52:30.510Z,12.26
2023-04-25T07:55:06.516Z,12.63
2023-04-25T07:57:44.297Z,12.87
2023-04-25T08:00:14.315Z,12.85
2023-04-25T08:02:45.454Z,13.14
2023-04-25T08:05:20.320Z,12.65
2023-04-25T08:07:56.497Z,13.07
2023-04-25T08:10:24.925Z,13.29
2023-04-25T08:12:55.139Z,13.33
2023-04-25T08:15:24.935Z,12.93
2023-04-25T08:17:53.594Z,12.11
2023-04-25T08:20:22.270Z,12.48
2023-04-25T08:22:51.952Z,12.61
2023-04-25T08:25:40.685Z,12.96
2023-04-25T08:28:10.374Z,12.58
2023-04-25T08:30:39.090Z,12.58
2023-04-25T08:33:09.582Z,13.09
2023-04-25T08:35:58.258Z,13.21
2023-04-25T08:38:28.832Z,12.63
2023-04-25T08:40:58.488Z,13.29
2023-04-25T08:43:27.628Z,13.16
2023-04-25T08:46:02.184Z,12.77
2023-04-25T08:48:47.569Z,13.17
2023-04-25T08:51:28.859Z,12.98
2023-04-25T08:54:27.951Z,12.92
2023-04-25T08:57:03.404Z,12.59
2023-04-25T08:59:33.157Z,12.97
2023-04-25T09:02:02.549Z,13.39
2023-04-25T09:04:33.385Z,12.98
2023-04-25T09:07:01.691Z,13.04
2023-04-25T09:09:31.433Z,12.97
2023-04-25T09:12:00.502Z,13.17
2023-04-25T09:14:29.091Z,13.36
2023-04-25T09:17:13.127Z,13.47
2023-04-25T09:19:47.572Z,13.65
2023-04-25T09:22:27.134Z,14.18
2023-04-25T09:24:55.480Z,14.13
2023-04-25T09:27:27.977Z,14.23
2023-04-25T09:30:17.670Z,13.66
2023-04-25T09:33:11.854Z,14.02
2023-04-25T09:35:46.070Z,14.43
2023-04-25T09:38:22.371Z,14.48
2023-04-25T09:40:59.155Z,14.44
2023-04-25T09:43:37.476Z,14.23
2023-04-25T09:46:12.130Z,14.81
2023-04-25T09:48:51.406Z,16.28
2023-04-25T09:51:28.766Z,15.91
2023-04-25T09:53:59.594Z,14.65
2023-04-25T09:56:55.021Z,14.12
2023-04-25T09:59:23.883Z,13.47
2023-04-25T10:01:56.463Z,13.09
2023-04-25T10:04:36.257Z,13.20
2023-04-25T10:07:13.884Z,12.78
2023-04-25T10:09:51.284Z,12.63
2023-04-25T10:12:19.919Z,12.49
2023-04-25T10:14:48.612Z,12.23
2023-04-25T10:17:17.355Z,12.11
2023-04-25T10:19:45.554Z,12.48
2023-04-25T10:22:24.826Z,12.76
2023-04-25T10:24:53.573Z,12.79
2023-04-25T10:27:21.892Z,13.12
2023-04-25T10:30:16.270Z,15.08
2023-04-25T10:32:50.850Z,15.01
2023-04-25T10:35:34.932Z,15.86
2023-04-25T10:38:11.813Z,14.40
2023-04-25T10:40:40.468Z,14.68
2023-04-25T10:43:49.961Z,14.04
2023-04-25T10:46:32.737Z,13.54
2023-04-25T10:49:04.070Z,13.17
2023-04-25T10:51:54.363Z,13.42
2023-04-25T10:54:26.629Z,13.05
2023-04-25T10:56:54.966Z,13.18
2023-04-25T10:59:26.381Z,13.18
2023-04-25T11:01:56.075Z,13.14
2023-04-25T11:04:35.076Z,13.46
2023-04-25T11:07:32.076Z,13.72
2023-04-25T11:10:05.094Z,13.86
2023-04-25T11:12:33.939Z,13.98
2023-04-25T11:15:08.230Z,14.74
2023-04-25T11:17:36.743Z,15.59
2023-04-25T11:20:10.928Z,16.17
2023-04-25T11:22:42.916Z,16.25
2023-04-25T11:25:13.945Z,16.36
2023-04-25T11:27:52.640Z,16.39
2023-04-25T11:30:22.194Z,16.11
2023-04-25T11:32:51.044Z,15.76
2023-04-25T11:35:24.374Z,15.60
2023-04-25T11:37:53.194Z,-149.27
2023-04-25T11:40:21.508Z,-149.27
2023-04-25T11:42:49.926Z,-149.27
2023-04-25T11:45:19.681Z,-149.27
